sensor_id;sensor_type;location;lat;lon;timestamp;P1;durP1;ratioP1;P2;durP2;ratioP2
6109;SDS011;3085;49.444;11.054;2023-11-19T00:01:24;3.70;;;2.50;;
6109;SDS011;3085;49.444;11.054;2023-11-19T00:03:52;4.50;;;2.77;;
6109;SDS011;3085;49.444;11.054;2023-11-19T00:06:19;4.10;;;2.43;;
6109;SDS011;3085;49.444;11.054;2023-11-19T00:08:46;3.10;;;2.70;;
6109;SDS011;3085;49.444;11.054;2023-11-19T00:11:13;4.23;;;2.73;;
6109;SDS011;3085;49.444;11.054;2023-11-19T00:13:40;3.53;;;2.33;;
6109;SDS011;3085;49.444;11.054;2023-11-19T00:16:07;3.80;;;2.93;;
6109;SDS011;3085;49.444;11.054;2023-11-19T00:18:35;4.30;;;2.03;;
6109;SDS011;3085;49.444;11.054;2023-11-19T00:21:03;3.00;;;2.23;;
6109;SDS011;3085;49.444;11.054;2023-11-19T00:23:31;4.30;;;2.50;;
6109;SDS011;3085;49.444;11.054;2023-11-19T00:25:58;2.63;;;2.10;;
6109;SDS011;3085;49.444;11.054;2023-11-19T00:28:25;5.10;;;2.80;;
6109;SDS011;3085;49.444;11.054;2023-11-19T00:30:52;4.47;;;2.40;;
6109;SDS011;3085;49.444;11.054;2023-11-19T00:33:19;4.97;;;2.93;;
6109;SDS011;3085;49.444;11.054;2023-11-19T00:35:46;8.40;;;3.20;;
6109;SDS011;3085;49.444;11.054;2023-11-19T00:38:14;2.33;;;1.97;;
6109;SDS011;3085;49.444;11.054;2023-11-19T00:40:41;4.03;;;2.63;;
6109;SDS011;3085;49.444;11.054;2023-11-19T00:43:09;2.60;;;2.23;;
6109;SDS011;3085;49.444;11.054;2023-11-19T00:45:36;3.23;;;2.20;;
6109;SDS011;3085;49.444;11.054;2023-11-19T00:48:03;4.23;;;2.43;;
6109;SDS011;3085;49.444;11.054;2023-11-19T00:50:30;4.70;;;2.60;;
6109;SDS011;3085;49.444;11.054;2023-11-19T00:52:57;4.50;;;2.67;;
6109;SDS011;3085;49.444;11.054;2023-11-19T00:55:26;4.37;;;2.70;;
6109;SDS011;3085;49.444;11.054;2023-11-19T00:57:52;3.70;;;2.87;;
6109;SDS011;3085;49.444;11.054;2023-11-19T01:00:19;4.20;;;2.57;;
6109;SDS011;3085;49.444;11.054;2023-11-19T01:02:49;4.00;;;2.30;;
6109;SDS011;3085;49.444;11.054;2023-11-19T01:05:16;10.13;;;2.70;;
6109;SDS011;3085;49.444;11.054;2023-11-19T01:07:46;3.23;;;2.50;;
6109;SDS011;3085;49.444;11.054;2023-11-19T01:10:13;6.27;;;3.03;;
6109;SDS011;3085;49.444;11.054;2023-11-19T01:12:42;6.87;;;2.90;;
6109;SDS011;3085;49.444;11.054;2023-11-19T01:15:09;5.67;;;2.50;;
6109;SDS011;3085;49.444;11.054;2023-11-19T01:17:36;2.97;;;2.40;;
6109;SDS011;3085;49.444;11.054;2023-11-19T01:20:03;5.10;;;2.83;;
6109;SDS011;3085;49.444;11.054;2023-11-19T01:22:31;4.80;;;2.70;;
6109;SDS011;3085;49.444;11.054;2023-11-19T01:24:58;2.87;;;2.30;;
6109;SDS011;3085;49.444;11.054;2023-11-19T01:27:25;3.70;;;2.87;;
6109;SDS011;3085;49.444;11.054;2023-11-19T01:29:53;3.67;;;2.30;;
6109;SDS011;3085;49.444;11.054;2023-11-19T01:32:20;3.57;;;2.53;;
6109;SDS011;3085;49.444;11.054;2023-11-19T01:34:49;4.20;;;2.70;;
6109;SDS011;3085;49.444;11.054;2023-11-19T01:37:15;4.87;;;3.10;;
6109;SDS011;3085;49.444;11.054;2023-11-19T01:39:43;3.63;;;2.60;;
6109;SDS011;3085;49.444;11.054;2023-11-19T01:42:10;4.50;;;2.57;;
6109;SDS011;3085;49.444;11.054;2023-11-19T01:44:37;3.83;;;2.70;;
6109;SDS011;3085;49.444;11.054;2023-11-19T01:47:05;2.37;;;2.00;;
6109;SDS011;3085;49.444;11.054;2023-11-19T01:49:32;3.37;;;2.20;;
6109;SDS011;3085;49.444;11.054;2023-11-19T01:51:59;4.60;;;2.90;;
6109;SDS011;3085;49.444;11.054;2023-11-19T01:54:26;3.30;;;2.23;;
6109;SDS011;3085;49.444;11.054;2023-11-19T01:56:54;3.03;;;2.30;;
6109;SDS011;3085;49.444;11.054;2023-11-19T01:59:23;2.03;;;1.70;;
6109;SDS011;3085;49.444;11.054;2023-11-19T02:01:51;3.43;;;2.13;;
6109;SDS011;3085;49.444;11.054;2023-11-19T02:04:20;3.90;;;2.40;;
6109;SDS011;3085;49.444;11.054;2023-11-19T02:06:47;2.80;;;2.30;;
6109;SDS011;3085;49.444;11.054;2023-11-19T02:09:18;4.70;;;2.53;;
6109;SDS011;3085;49.444;11.054;2023-11-19T02:11:45;2.90;;;2.23;;
6109;SDS011;3085;49.444;11.054;2023-11-19T02:14:14;3.53;;;2.70;;
6109;SDS011;3085;49.444;11.054;2023-11-19T02:16:41;3.00;;;2.40;;
6109;SDS011;3085;49.444;11.054;2023-11-19T02:19:08;3.57;;;2.50;;
6109;SDS011;3085;49.444;11.054;2023-11-19T02:21:37;3.20;;;2.40;;
6109;SDS011;3085;49.444;11.054;2023-11-19T02:24:05;6.10;;;2.80;;
6109;SDS011;3085;49.444;11.054;2023-11-19T02:26:36;6.03;;;2.50;;
6109;SDS011;3085;49.444;11.054;2023-11-19T02:29:06;6.83;;;3.63;;
6109;SDS011;3085;49.444;11.054;2023-11-19T02:31:33;4.80;;;3.13;;
6109;SDS011;3085;49.444;11.054;2023-11-19T02:34:01;5.70;;;3.40;;
6109;SDS011;3085;49.444;11.054;2023-11-19T02:36:28;5.13;;;2.60;;
6109;SDS011;3085;49.444;11.054;2023-11-19T02:38:55;4.53;;;2.50;;
6109;SDS011;3085;49.444;11.054;2023-11-19T02:41:21;4.77;;;2.97;;
6109;SDS011;3085;49.444;11.054;2023-11-19T02:43:49;4.90;;;3.00;;
6109;SDS011;3085;49.444;11.054;2023-11-19T02:46:17;4.80;;;3.10;;
6109;SDS011;3085;49.444;11.054;2023-11-19T02:48:44;5.50;;;2.97;;
6109;SDS011;3085;49.444;11.054;2023-11-19T02:51:11;3.57;;;2.67;;
6109;SDS011;3085;49.444;11.054;2023-11-19T02:53:38;3.00;;;2.30;;
6109;SDS011;3085;49.444;11.054;2023-11-19T02:56:05;3.90;;;2.77;;
6109;SDS011;3085;49.444;11.054;2023-11-19T02:58:42;3.40;;;2.37;;
6109;SDS011;3085;49.444;11.054;2023-11-19T03:01:09;5.80;;;3.00;;
6109;SDS011;3085;49.444;11.054;2023-11-19T03:03:45;3.80;;;2.67;;
6109;SDS011;3085;49.444;11.054;2023-11-19T03:06:14;4.93;;;2.93;;
6109;SDS011;3085;49.444;11.054;2023-11-19T03:08:41;2.70;;;2.30;;
6109;SDS011;3085;49.444;11.054;2023-11-19T03:11:08;4.73;;;2.57;;
6109;SDS011;3085;49.444;11.054;2023-11-19T03:13:34;4.43;;;2.53;;
6109;SDS011;3085;49.444;11.054;2023-11-19T03:16:01;7.07;;;3.37;;
6109;SDS011;3085;49.444;11.054;2023-11-19T03:18:28;4.17;;;2.70;;
6109;SDS011;3085;49.444;11.054;2023-11-19T03:20:56;4.40;;;3.00;;
6109;SDS011;3085;49.444;11.054;2023-11-19T03:23:23;9.00;;;3.17;;
6109;SDS011;3085;49.444;11.054;2023-11-19T03:25:52;4.50;;;3.13;;
6109;SDS011;3085;49.444;11.054;2023-11-19T03:28:19;3.93;;;2.57;;
6109;SDS011;3085;49.444;11.054;2023-11-19T03:30:46;4.30;;;2.40;;
6109;SDS011;3085;49.444;11.054;2023-11-19T03:33:13;7.90;;;3.50;;
6109;SDS011;3085;49.444;11.054;2023-11-19T03:35:40;3.93;;;2.77;;
6109;SDS011;3085;49.444;11.054;2023-11-19T03:38:08;4.00;;;3.00;;
6109;SDS011;3085;49.444;11.054;2023-11-19T03:40:34;5.13;;;3.07;;
6109;SDS011;3085;49.444;11.054;2023-11-19T03:43:00;4.63;;;2.50;;
6109;SDS011;3085;49.444;11.054;2023-11-19T03:45:29;5.87;;;3.80;;
6109;SDS011;3085;49.444;11.054;2023-11-19T03:47:56;4.70;;;2.93;;
6109;SDS011;3085;49.444;11.054;2023-11-19T03:50:22;5.30;;;3.67;;
6109;SDS011;3085;49.444;11.054;2023-11-19T03:52:52;6.97;;;3.17;;
6109;SDS011;3085;49.444;11.054;2023-11-19T03:55:20;5.63;;;2.60;;
6109;SDS011;3085;49.444;11.054;2023-11-19T03:57:47;8.33;;;3.30;;
6109;SDS011;3085;49.444;11.054;2023-11-19T04:00:14;5.03;;;3.40;;
6109;SDS011;3085;49.444;11.054;2023-11-19T04:02:41;5.57;;;3.30;;
6109;SDS011;3085;49.444;11.054;2023-11-19T04:05:08;4.93;;;3.47;;
6109;SDS011;3085;49.444;11.054;2023-11-19T04:07:35;5.27;;;3.53;;
6109;SDS011;3085;49.444;11.054;2023-11-19T04:10:02;6.57;;;4.00;;
6109;SDS011;3085;49.444;11.054;2023-11-19T04:12:31;7.00;;;3.80;;
6109;SDS011;3085;49.444;11.054;2023-11-19T04:14:58;4.90;;;2.90;;
6109;SDS011;3085;49.444;11.054;2023-11-19T04:17:25;7.40;;;3.40;;
6109;SDS011;3085;49.444;11.054;2023-11-19T04:19:52;11.33;;;3.73;;
6109;SDS011;3085;49.444;11.054;2023-11-19T04:22:19;6.37;;;3.67;;
6109;SDS011;3085;49.444;11.054;2023-11-19T04:24:46;4.37;;;3.10;;
6109;SDS011;3085;49.444;11.054;2023-11-19T04:27:13;5.53;;;4.03;;
6109;SDS011;3085;49.444;11.054;2023-11-19T04:29:41;4.80;;;3.30;;
6109;SDS011;3085;49.444;11.054;2023-11-19T04:32:08;6.43;;;3.70;;
6109;SDS011;3085;49.444;11.054;2023-11-19T04:34:35;6.43;;;3.60;;
6109;SDS011;3085;49.444;11.054;2023-11-19T04:37:02;7.13;;;3.83;;
6109;SDS011;3085;49.444;11.054;2023-11-19T04:39:29;4.70;;;3.43;;
6109;SDS011;3085;49.444;11.054;2023-11-19T04:41:56;9.70;;;4.53;;
6109;SDS011;3085;49.444;11.054;2023-11-19T04:44:24;6.10;;;3.87;;
6109;SDS011;3085;49.444;11.054;2023-11-19T04:46:52;5.27;;;4.00;;
6109;SDS011;3085;49.444;11.054;2023-11-19T04:49:19;5.63;;;4.03;;
6109;SDS011;3085;49.444;11.054;2023-11-19T04:51:45;6.20;;;3.60;;
6109;SDS011;3085;49.444;11.054;2023-11-19T04:54:13;9.87;;;4.00;;
6109;SDS011;3085;49.444;11.054;2023-11-19T04:56:40;7.90;;;4.50;;
6109;SDS011;3085;49.444;11.054;2023-11-19T04:59:06;7.00;;;3.90;;
6109;SDS011;3085;49.444;11.054;2023-11-19T05:01:33;7.93;;;4.17;;
6109;SDS011;3085;49.444;11.054;2023-11-19T05:04:02;5.77;;;4.20;;
6109;SDS011;3085;49.444;11.054;2023-11-19T05:06:28;7.60;;;3.93;;
6109;SDS011;3085;49.444;11.054;2023-11-19T05:08:55;8.70;;;4.20;;
6109;SDS011;3085;49.444;11.054;2023-11-19T05:11:21;6.07;;;3.33;;
6109;SDS011;3085;49.444;11.054;2023-11-19T05:13:48;8.23;;;3.90;;
6109;SDS011;3085;49.444;11.054;2023-11-19T05:16:16;6.60;;;4.07;;
6109;SDS011;3085;49.444;11.054;2023-11-19T05:18:44;5.60;;;3.70;;
6109;SDS011;3085;49.444;11.054;2023-11-19T05:21:12;5.90;;;4.20;;
6109;SDS011;3085;49.444;11.054;2023-11-19T05:23:39;5.60;;;3.73;;
6109;SDS011;3085;49.444;11.054;2023-11-19T05:26:07;5.87;;;3.83;;
6109;SDS011;3085;49.444;11.054;2023-11-19T05:28:33;5.90;;;3.43;;
6109;SDS011;3085;49.444;11.054;2023-11-19T05:31:00;6.53;;;3.50;;
6109;SDS011;3085;49.444;11.054;2023-11-19T05:33:27;5.67;;;3.73;;
6109;SDS011;3085;49.444;11.054;2023-11-19T05:35:54;8.17;;;4.40;;
6109;SDS011;3085;49.444;11.054;2023-11-19T05:38:23;11.47;;;5.83;;
6109;SDS011;3085;49.444;11.054;2023-11-19T05:40:50;7.23;;;5.00;;
6109;SDS011;3085;49.444;11.054;2023-11-19T05:43:17;7.60;;;4.80;;
6109;SDS011;3085;49.444;11.054;2023-11-19T05:45:43;9.63;;;5.47;;
6109;SDS011;3085;49.444;11.054;2023-11-19T05:48:10;5.83;;;4.30;;
6109;SDS011;3085;49.444;11.054;2023-11-19T05:50:37;7.70;;;4.27;;
6109;SDS011;3085;49.444;11.054;2023-11-19T05:53:04;5.83;;;3.87;;
6109;SDS011;3085;49.444;11.054;2023-11-19T05:55:36;10.07;;;5.07;;
6109;SDS011;3085;49.444;11.054;2023-11-19T05:58:10;8.07;;;4.10;;
6109;SDS011;3085;49.444;11.054;2023-11-19T06:00:37;5.13;;;3.20;;
6109;SDS011;3085;49.444;11.054;2023-11-19T06:03:04;7.17;;;3.60;;
6109;SDS011;3085;49.444;11.054;2023-11-19T06:05:31;5.27;;;3.40;;
6109;SDS011;3085;49.444;11.054;2023-11-19T06:07:58;8.10;;;2.40;;
6109;SDS011;3085;49.444;11.054;2023-11-19T06:10:25;6.60;;;2.87;;
6109;SDS011;3085;49.444;11.054;2023-11-19T06:12:57;4.07;;;2.67;;
6109;SDS011;3085;49.444;11.054;2023-11-19T06:15:24;2.87;;;2.07;;
6109;SDS011;3085;49.444;11.054;2023-11-19T06:17:52;4.50;;;3.20;;
6109;SDS011;3085;49.444;11.054;2023-11-19T06:20:19;4.50;;;2.40;;
6109;SDS011;3085;49.444;11.054;2023-11-19T06:22:46;4.80;;;2.50;;
6109;SDS011;3085;49.444;11.054;2023-11-19T06:25:13;4.77;;;2.73;;
6109;SDS011;3085;49.444;11.054;2023-11-19T06:27:40;6.30;;;2.50;;
6109;SDS011;3085;49.444;11.054;2023-11-19T06:30:09;4.03;;;2.47;;
6109;SDS011;3085;49.444;11.054;2023-11-19T06:32:36;3.53;;;2.70;;
6109;SDS011;3085;49.444;11.054;2023-11-19T06:35:04;4.20;;;2.10;;
6109;SDS011;3085;49.444;11.054;2023-11-19T06:37:31;5.80;;;3.23;;
6109;SDS011;3085;49.444;11.054;2023-11-19T06:39:58;5.57;;;2.80;;
6109;SDS011;3085;49.444;11.054;2023-11-19T06:42:24;3.63;;;2.70;;
6109;SDS011;3085;49.444;11.054;2023-11-19T06:44:51;4.30;;;2.80;;
6109;SDS011;3085;49.444;11.054;2023-11-19T06:47:19;3.50;;;2.10;;
6109;SDS011;3085;49.444;11.054;2023-11-19T06:49:46;4.90;;;2.83;;
6109;SDS011;3085;49.444;11.054;2023-11-19T06:52:13;6.57;;;3.17;;
6109;SDS011;3085;49.444;11.054;2023-11-19T06:54:40;5.03;;;3.17;;
6109;SDS011;3085;49.444;11.054;2023-11-19T06:57:06;4.13;;;2.53;;
6109;SDS011;3085;49.444;11.054;2023-11-19T06:59:34;5.70;;;2.83;;
6109;SDS011;3085;49.444;11.054;2023-11-19T07:02:01;3.33;;;2.27;;
6109;SDS011;3085;49.444;11.054;2023-11-19T07:04:29;4.60;;;2.30;;
6109;SDS011;3085;49.444;11.054;2023-11-19T07:06:56;4.40;;;2.40;;
6109;SDS011;3085;49.444;11.054;2023-11-19T07:09:22;5.57;;;1.93;;
6109;SDS011;3085;49.444;11.054;2023-11-19T07:11:49;6.03;;;2.87;;
6109;SDS011;3085;49.444;11.054;2023-11-19T07:14:17;5.67;;;2.60;;
6109;SDS011;3085;49.444;11.054;2023-11-19T07:16:44;4.03;;;3.20;;
6109;SDS011;3085;49.444;11.054;2023-11-19T07:19:11;4.37;;;2.40;;
6109;SDS011;3085;49.444;11.054;2023-11-19T07:21:42;5.00;;;2.70;;
6109;SDS011;3085;49.444;11.054;2023-11-19T07:24:09;3.87;;;2.13;;
6109;SDS011;3085;49.444;11.054;2023-11-19T07:26:40;3.37;;;2.23;;
6109;SDS011;3085;49.444;11.054;2023-11-19T07:29:09;6.13;;;3.20;;
6109;SDS011;3085;49.444;11.054;2023-11-19T07:31:36;5.83;;;3.20;;
6109;SDS011;3085;49.444;11.054;2023-11-19T07:34:02;6.63;;;2.97;;
6109;SDS011;3085;49.444;11.054;2023-11-19T07:36:30;3.90;;;2.40;;
6109;SDS011;3085;49.444;11.054;2023-11-19T07:38:58;6.30;;;1.83;;
6109;SDS011;3085;49.444;11.054;2023-11-19T07:41:25;2.77;;;1.73;;
6109;SDS011;3085;49.444;11.054;2023-11-19T07:43:52;3.57;;;2.03;;
6109;SDS011;3085;49.444;11.054;2023-11-19T07:46:19;3.67;;;1.90;;
6109;SDS011;3085;49.444;11.054;2023-11-19T07:48:46;2.97;;;2.17;;
6109;SDS011;3085;49.444;11.054;2023-11-19T07:51:13;3.37;;;2.03;;
6109;SDS011;3085;49.444;11.054;2023-11-19T07:53:41;3.70;;;1.90;;
6109;SDS011;3085;49.444;11.054;2023-11-19T07:56:09;3.20;;;1.50;;
6109;SDS011;3085;49.444;11.054;2023-11-19T07:58:36;3.00;;;1.90;;
6109;SDS011;3085;49.444;11.054;2023-11-19T08:01:04;4.37;;;1.77;;
6109;SDS011;3085;49.444;11.054;2023-11-19T08:03:31;2.80;;;1.50;;
6109;SDS011;3085;49.444;11.054;2023-11-19T08:05:59;3.73;;;1.50;;
6109;SDS011;3085;49.444;11.054;2023-11-19T08:08:26;2.03;;;1.50;;
6109;SDS011;3085;49.444;11.054;2023-11-19T08:10:54;1.50;;;1.10;;
6109;SDS011;3085;49.444;11.054;2023-11-19T08:13:23;1.30;;;1.00;;
6109;SDS011;3085;49.444;11.054;2023-11-19T08:15:49;2.60;;;1.27;;
6109;SDS011;3085;49.444;11.054;2023-11-19T08:18:16;2.23;;;1.40;;
6109;SDS011;3085;49.444;11.054;2023-11-19T08:20:44;1.23;;;0.90;;
6109;SDS011;3085;49.444;11.054;2023-11-19T08:23:14;1.50;;;1.10;;
6109;SDS011;3085;49.444;11.054;2023-11-19T08:25:40;3.60;;;1.27;;
6109;SDS011;3085;49.444;11.054;2023-11-19T08:28:07;1.70;;;1.10;;
6109;SDS011;3085;49.444;11.054;2023-11-19T08:30:35;2.20;;;1.40;;
6109;SDS011;3085;49.444;11.054;2023-11-19T08:33:02;1.83;;;1.20;;
6109;SDS011;3085;49.444;11.054;2023-11-19T08:35:30;1.50;;;1.00;;
6109;SDS011;3085;49.444;11.054;2023-11-19T08:37:57;1.50;;;1.13;;
6109;SDS011;3085;49.444;11.054;2023-11-19T08:40:25;2.13;;;1.80;;
6109;SDS011;3085;49.444;11.054;2023-11-19T08:42:52;1.70;;;1.20;;
6109;SDS011;3085;49.444;11.054;2023-11-19T08:45:19;1.60;;;1.00;;
6109;SDS011;3085;49.444;11.054;2023-11-19T08:47:47;1.50;;;1.20;;
6109;SDS011;3085;49.444;11.054;2023-11-19T08:50:14;2.70;;;1.10;;
6109;SDS011;3085;49.444;11.054;2023-11-19T08:52:41;12.20;;;1.47;;
6109;SDS011;3085;49.444;11.054;2023-11-19T08:55:08;1.50;;;1.00;;
6109;SDS011;3085;49.444;11.054;2023-11-19T08:57:35;3.40;;;1.73;;
6109;SDS011;3085;49.444;11.054;2023-11-19T09:00:02;1.80;;;1.33;;
6109;SDS011;3085;49.444;11.054;2023-11-19T09:02:32;1.77;;;1.20;;
6109;SDS011;3085;49.444;11.054;2023-11-19T09:05:02;4.33;;;1.30;;
6109;SDS011;3085;49.444;11.054;2023-11-19T09:07:30;2.37;;;1.37;;
6109;SDS011;3085;49.444;11.054;2023-11-19T09:09:58;2.13;;;1.20;;
6109;SDS011;3085;49.444;11.054;2023-11-19T09:12:25;2.23;;;1.20;;
6109;SDS011;3085;49.444;11.054;2023-11-19T09:14:51;3.20;;;1.70;;
6109;SDS011;3085;49.444;11.054;2023-11-19T09:17:19;1.60;;;1.10;;
6109;SDS011;3085;49.444;11.054;2023-11-19T09:19:45;1.80;;;1.33;;
6109;SDS011;3085;49.444;11.054;2023-11-19T09:22:14;1.37;;;1.00;;
6109;SDS011;3085;49.444;11.054;2023-11-19T09:24:41;8.73;;;2.40;;
6109;SDS011;3085;49.444;11.054;2023-11-19T09:27:12;4.03;;;1.47;;
6109;SDS011;3085;49.444;11.054;2023-11-19T09:29:38;2.07;;;1.30;;
6109;SDS011;3085;49.444;11.054;2023-11-19T09:32:06;1.60;;;1.10;;
6109;SDS011;3085;49.444;11.054;2023-11-19T09:34:32;1.73;;;1.10;;
6109;SDS011;3085;49.444;11.054;2023-11-19T09:36:59;1.70;;;1.10;;
6109;SDS011;3085;49.444;11.054;2023-11-19T09:39:28;1.77;;;1.20;;
6109;SDS011;3085;49.444;11.054;2023-11-19T09:41:54;2.83;;;1.20;;
6109;SDS011;3085;49.444;11.054;2023-11-19T09:44:22;1.60;;;0.90;;
6109;SDS011;3085;49.444;11.054;2023-11-19T09:46:50;2.13;;;1.10;;
6109;SDS011;3085;49.444;11.054;2023-11-19T09:49:17;1.50;;;1.03;;
6109;SDS011;3085;49.444;11.054;2023-11-19T09:51:48;2.50;;;1.20;;
6109;SDS011;3085;49.444;11.054;2023-11-19T09:54:14;2.07;;;1.30;;
6109;SDS011;3085;49.444;11.054;2023-11-19T09:56:43;2.73;;;1.80;;
6109;SDS011;3085;49.444;11.054;2023-11-19T09:59:10;2.37;;;1.20;;
6109;SDS011;3085;49.444;11.054;2023-11-19T10:01:37;5.27;;;1.20;;
6109;SDS011;3085;49.444;11.054;2023-11-19T10:04:04;2.10;;;1.30;;
6109;SDS011;3085;49.444;11.054;2023-11-19T10:06:32;3.50;;;1.00;;
6109;SDS011;3085;49.444;11.054;2023-11-19T10:08:59;2.77;;;1.50;;
6109;SDS011;3085;49.444;11.054;2023-11-19T10:11:26;2.53;;;1.37;;
6109;SDS011;3085;49.444;11.054;2023-11-19T10:13:57;3.00;;;1.20;;
6109;SDS011;3085;49.444;11.054;2023-11-19T10:16:29;1.43;;;1.07;;
6109;SDS011;3085;49.444;11.054;2023-11-19T10:18:57;2.40;;;1.30;;
6109;SDS011;3085;49.444;11.054;2023-11-19T10:21:24;4.17;;;1.27;;
6109;SDS011;3085;49.444;11.054;2023-11-19T10:23:53;2.17;;;1.23;;
6109;SDS011;3085;49.444;11.054;2023-11-19T10:26:22;2.97;;;1.43;;
6109;SDS011;3085;49.444;11.054;2023-11-19T10:28:49;1.60;;;1.10;;
6109;SDS011;3085;49.444;11.054;2023-11-19T10:31:17;2.17;;;1.40;;
6109;SDS011;3085;49.444;11.054;2023-11-19T10:33:48;3.10;;;1.30;;
6109;SDS011;3085;49.444;11.054;2023-11-19T10:36:14;2.23;;;1.20;;
6109;SDS011;3085;49.444;11.054;2023-11-19T10:38:51;1.57;;;1.20;;
6109;SDS011;3085;49.444;11.054;2023-11-19T10:41:26;5.73;;;1.17;;
6109;SDS011;3085;49.444;11.054;2023-11-19T10:43:53;1.90;;;1.23;;
6109;SDS011;3085;49.444;11.054;2023-11-19T10:46:21;2.00;;;1.30;;
6109;SDS011;3085;49.444;11.054;2023-11-19T10:48:56;3.40;;;1.10;;
6109;SDS011;3085;49.444;11.054;2023-11-19T10:51:22;1.40;;;1.07;;
6109;SDS011;3085;49.444;11.054;2023-11-19T10:53:55;4.90;;;1.30;;
6109;SDS011;3085;49.444;11.054;2023-11-19T10:56:29;2.13;;;1.30;;
6109;SDS011;3085;49.444;11.054;2023-11-19T10:59:03;1.83;;;1.00;;
6109;SDS011;3085;49.444;11.054;2023-11-19T11:01:45;1.60;;;1.20;;
6109;SDS011;3085;49.444;11.054;2023-11-19T11:04:24;2.07;;;1.13;;
6109;SDS011;3085;49.444;11.054;2023-11-19T11:06:53;3.87;;;1.13;;
6109;SDS011;3085;49.444;11.054;2023-11-19T11:09:21;1.53;;;1.07;;
6109;SDS011;3085;49.444;11.054;2023-11-19T11:11:48;2.20;;;1.37;;
6109;SDS011;3085;49.444;11.054;2023-11-19T11:14:18;1.60;;;1.13;;
6109;SDS011;3085;49.444;11.054;2023-11-19T11:16:48;4.23;;;1.20;;
6109;SDS011;3085;49.444;11.054;2023-11-19T11:19:15;2.90;;;1.43;;
6109;SDS011;3085;49.444;11.054;2023-11-19T11:21:44;6.57;;;1.10;;
6109;SDS011;3085;49.444;11.054;2023-11-19T11:24:23;1.60;;;1.07;;
6109;SDS011;3085;49.444;11.054;2023-11-19T11:27:10;1.60;;;1.00;;
6109;SDS011;3085;49.444;11.054;2023-11-19T11:30:07;2.47;;;1.57;;
6109;SDS011;3085;49.444;11.054;2023-11-19T11:32:50;3.03;;;1.30;;
6109;SDS011;3085;49.444;11.054;2023-11-19T11:35:24;2.07;;;1.27;;
6109;SDS011;3085;49.444;11.054;2023-11-19T11:38:01;3.10;;;1.37;;
6109;SDS011;3085;49.444;11.054;2023-11-19T11:40:32;2.63;;;1.20;;
6109;SDS011;3085;49.444;11.054;2023-11-19T11:42:59;4.90;;;1.40;;
6109;SDS011;3085;49.444;11.054;2023-11-19T11:45:35;6.47;;;1.30;;
6109;SDS011;3085;49.444;11.054;2023-11-19T11:48:13;1.93;;;1.20;;
6109;SDS011;3085;49.444;11.054;2023-11-19T11:50:48;5.20;;;1.30;;
6109;SDS011;3085;49.444;11.054;2023-11-19T11:53:17;2.23;;;1.10;;
6109;SDS011;3085;49.444;11.054;2023-11-19T11:55:54;3.10;;;1.40;;
6109;SDS011;3085;49.444;11.054;2023-11-19T11:58:34;3.23;;;1.10;;
6109;SDS011;3085;49.444;11.054;2023-11-19T12:01:03;2.27;;;1.13;;
6109;SDS011;3085;49.444;11.054;2023-11-19T12:03:33;2.40;;;1.40;;
6109;SDS011;3085;49.444;11.054;2023-11-19T12:06:00;3.93;;;1.33;;
6109;SDS011;3085;49.444;11.054;2023-11-19T12:08:28;2.47;;;1.10;;
6109;SDS011;3085;49.444;11.054;2023-11-19T12:10:56;13.97;;;1.30;;
6109;SDS011;3085;49.444;11.054;2023-11-19T12:13:24;1.97;;;1.10;;
6109;SDS011;3085;49.444;11.054;2023-11-19T12:16:06;1.80;;;1.20;;
6109;SDS011;3085;49.444;11.054;2023-11-19T12:18:35;10.23;;;1.27;;
6109;SDS011;3085;49.444;11.054;2023-11-19T12:21:02;1.57;;;1.27;;
6109;SDS011;3085;49.444;11.054;2023-11-19T12:23:30;5.23;;;1.63;;
6109;SDS011;3085;49.444;11.054;2023-11-19T12:25:59;3.83;;;1.63;;
6109;SDS011;3085;49.444;11.054;2023-11-19T12:28:26;5.67;;;1.60;;
6109;SDS011;3085;49.444;11.054;2023-11-19T12:30:53;11.67;;;1.80;;
6109;SDS011;3085;49.444;11.054;2023-11-19T12:33:35;3.23;;;1.30;;
6109;SDS011;3085;49.444;11.054;2023-11-19T12:36:12;3.17;;;1.47;;
6109;SDS011;3085;49.444;11.054;2023-11-19T12:38:42;4.70;;;1.27;;
6109;SDS011;3085;49.444;11.054;2023-11-19T12:41:10;2.43;;;1.33;;
6109;SDS011;3085;49.444;11.054;2023-11-19T12:43:38;2.70;;;1.20;;
6109;SDS011;3085;49.444;11.054;2023-11-19T12:46:16;2.23;;;1.30;;
6109;SDS011;3085;49.444;11.054;2023-11-19T12:48:48;1.53;;;1.20;;
6109;SDS011;3085;49.444;11.054;2023-11-19T12:51:20;2.40;;;1.50;;
6109;SDS011;3085;49.444;11.054;2023-11-19T12:53:47;9.80;;;1.33;;
6109;SDS011;3085;49.444;11.054;2023-11-19T12:56:15;2.43;;;1.30;;
6109;SDS011;3085;49.444;11.054;2023-11-19T12:58:41;1.60;;;1.33;;
6109;SDS011;3085;49.444;11.054;2023-11-19T13:01:09;4.93;;;1.53;;
6109;SDS011;3085;49.444;11.054;2023-11-19T13:03:36;3.00;;;1.50;;
6109;SDS011;3085;49.444;11.054;2023-11-19T13:06:06;3.80;;;1.73;;
6109;SDS011;3085;49.444;11.054;2023-11-19T13:08:36;3.73;;;1.10;;
6109;SDS011;3085;49.444;11.054;2023-11-19T13:11:04;2.33;;;1.30;;
6109;SDS011;3085;49.444;11.054;2023-11-19T13:13:32;3.73;;;1.10;;
6109;SDS011;3085;49.444;11.054;2023-11-19T13:16:03;2.00;;;1.17;;
6109;SDS011;3085;49.444;11.054;2023-11-19T13:18:31;1.30;;;1.00;;
6109;SDS011;3085;49.444;11.054;2023-11-19T13:20:58;2.33;;;1.10;;
6109;SDS011;3085;49.444;11.054;2023-11-19T13:23:26;1.40;;;1.00;;
6109;SDS011;3085;49.444;11.054;2023-11-19T13:25:52;3.03;;;1.20;;
6109;SDS011;3085;49.444;11.054;2023-11-19T13:28:19;3.67;;;1.33;;
6109;SDS011;3085;49.444;11.054;2023-11-19T13:30:47;5.13;;;1.33;;
6109;SDS011;3085;49.444;11.054;2023-11-19T13:33:14;2.43;;;1.20;;
6109;SDS011;3085;49.444;11.054;2023-11-19T13:35:41;1.40;;;0.90;;
6109;SDS011;3085;49.444;11.054;2023-11-19T13:38:08;2.17;;;1.10;;
6109;SDS011;3085;49.444;11.054;2023-11-19T13:40:36;2.43;;;1.00;;
6109;SDS011;3085;49.444;11.054;2023-11-19T13:43:04;3.10;;;1.13;;
6109;SDS011;3085;49.444;11.054;2023-11-19T13:45:31;3.10;;;1.00;;
6109;SDS011;3085;49.444;11.054;2023-11-19T13:47:57;1.97;;;1.00;;
6109;SDS011;3085;49.444;11.054;2023-11-19T13:50:24;2.33;;;1.10;;
6109;SDS011;3085;49.444;11.054;2023-11-19T13:52:51;4.13;;;1.13;;
6109;SDS011;3085;49.444;11.054;2023-11-19T13:55:18;4.27;;;1.50;;
6109;SDS011;3085;49.444;11.054;2023-11-19T13:57:46;2.30;;;1.23;;
6109;SDS011;3085;49.444;11.054;2023-11-19T14:00:14;1.47;;;1.00;;
6109;SDS011;3085;49.444;11.054;2023-11-19T14:02:53;3.70;;;1.77;;
6109;SDS011;3085;49.444;11.054;2023-11-19T14:05:21;2.03;;;1.00;;
6109;SDS011;3085;49.444;11.054;2023-11-19T14:07:48;1.53;;;1.10;;
6109;SDS011;3085;49.444;11.054;2023-11-19T14:10:16;2.23;;;1.40;;
6109;SDS011;3085;49.444;11.054;2023-11-19T14:12:43;2.87;;;1.03;;
6109;SDS011;3085;49.444;11.054;2023-11-19T14:15:12;1.77;;;1.10;;
6109;SDS011;3085;49.444;11.054;2023-11-19T14:17:39;3.63;;;1.53;;
6109;SDS011;3085;49.444;11.054;2023-11-19T14:20:06;3.13;;;1.10;;
6109;SDS011;3085;49.444;11.054;2023-11-19T14:22:40;3.00;;;1.30;;
6109;SDS011;3085;49.444;11.054;2023-11-19T14:25:08;1.60;;;1.33;;
6109;SDS011;3085;49.444;11.054;2023-11-19T14:27:36;3.60;;;1.60;;
6109;SDS011;3085;49.444;11.054;2023-11-19T14:30:04;6.80;;;1.40;;
6109;SDS011;3085;49.444;11.054;2023-11-19T14:32:33;3.93;;;1.00;;
6109;SDS011;3085;49.444;11.054;2023-11-19T14:34:59;1.80;;;1.10;;
6109;SDS011;3085;49.444;11.054;2023-11-19T14:37:26;1.97;;;1.20;;
6109;SDS011;3085;49.444;11.054;2023-11-19T14:39:53;8.83;;;1.50;;
6109;SDS011;3085;49.444;11.054;2023-11-19T14:42:20;1.60;;;1.00;;
6109;SDS011;3085;49.444;11.054;2023-11-19T14:44:47;3.50;;;1.10;;
6109;SDS011;3085;49.444;11.054;2023-11-19T14:47:14;4.83;;;1.17;;
6109;SDS011;3085;49.444;11.054;2023-11-19T14:49:42;2.57;;;1.50;;
6109;SDS011;3085;49.444;11.054;2023-11-19T14:52:09;4.40;;;1.40;;
6109;SDS011;3085;49.444;11.054;2023-11-19T14:54:36;5.50;;;2.30;;
6109;SDS011;3085;49.444;11.054;2023-11-19T14:57:04;8.97;;;4.57;;
6109;SDS011;3085;49.444;11.054;2023-11-19T14:59:31;4.30;;;2.33;;
6109;SDS011;3085;49.444;11.054;2023-11-19T15:01:59;3.50;;;1.43;;
6109;SDS011;3085;49.444;11.054;2023-11-19T15:04:26;5.40;;;1.27;;
6109;SDS011;3085;49.444;11.054;2023-11-19T15:06:56;3.47;;;1.57;;